Arden Hills, Minnesota
Current Conditions -  °F | °C
As of 2:21 AM on Monday 24 Nov 2014 (Local Time) from KANE Reporting Station
Overcast Overcast  
Wind Chill: 24°   Ceiling: 1500
Heat Index: 34°   Visibility: 10mi
Dew Point: 32°   Wind: 14mph
Humidity: 93%   Direction: 300°WNW
Pressure: 29.3"   Gusts: 18mph
Location:  45.0848°N, 93.136°W
Report Text: KANE 240821Z AUTO 30012G16KT 10SM OVC015 01/00 A2930 RMK AO2
Loading
Personal Weather Stations






























Interactive Weather Map New forecast layout! Learn more

10-Day Weather Forecast

Advertisements
Track Severe Weather on mobile